createdAt,value
2023-04-27T00:01:20.615Z,31.00
2023-04-27T00:03:54.948Z,32.20
2023-04-27T00:06:28.932Z,31.90
2023-04-27T00:09:02.492Z,32.60
2023-04-27T00:11:37.272Z,33.40
2023-04-27T00:14:10.614Z,33.10
2023-04-27T00:16:44.431Z,33.00
2023-04-27T00:19:18.201Z,32.50
2023-04-27T00:21:51.821Z,32.50
2023-04-27T00:24:25.421Z,31.40
2023-04-27T00:27:00.356Z,31.60
2023-04-27T00:29:33.524Z,31.80
2023-04-27T00:32:06.464Z,31.90
2023-04-27T00:34:39.513Z,31.90
2023-04-27T00:37:12.418Z,31.50
2023-04-27T00:39:45.329Z,31.50
2023-04-27T00:42:21.252Z,32.00
2023-04-27T00:44:56.876Z,32.60
2023-04-27T00:47:30.078Z,33.30
2023-04-27T00:50:03.384Z,33.60
2023-04-27T00:52:36.561Z,32.80
2023-04-27T00:55:10.682Z,32.70
2023-04-27T00:57:48.487Z,33.00
2023-04-27T01:00:22.653Z,33.20
2023-04-27T01:02:58.576Z,32.50
2023-04-27T01:05:32.786Z,32.20
2023-04-27T01:08:07.250Z,32.30
2023-04-27T01:10:40.620Z,32.70
2023-04-27T01:13:17.659Z,32.00
2023-04-27T01:15:50.723Z,31.30
2023-04-27T01:21:19.055Z,31.30
2023-04-27T01:23:54.407Z,32.10
2023-04-27T01:26:28.359Z,32.80
2023-04-27T01:29:02.027Z,32.20
2023-04-27T01:31:35.327Z,32.90
2023-04-27T01:34:08.472Z,32.90
2023-04-27T01:36:41.675Z,32.60
2023-04-27T01:39:16.532Z,32.50
2023-04-27T01:41:49.642Z,32.30
2023-04-27T01:44:24.439Z,32.80
2023-04-27T01:46:57.645Z,32.40
2023-04-27T01:49:30.760Z,32.30
2023-04-27T01:52:03.916Z,32.50
2023-04-27T01:54:41.080Z,32.40
2023-04-27T01:57:15.718Z,32.00
2023-04-27T01:59:49.019Z,31.50
2023-04-27T02:02:22.347Z,32.00
2023-04-27T02:04:55.660Z,31.20
2023-04-27T02:07:29.023Z,30.20
2023-04-27T02:10:03.706Z,30.80
2023-04-27T02:12:37.114Z,31.20
2023-04-27T02:15:11.404Z,31.50
2023-04-27T02:17:45.587Z,32.00
2023-04-27T02:20:19.475Z,32.30
2023-04-27T02:22:52.980Z,32.40
2023-04-27T02:25:28.613Z,32.40
2023-04-27T02:28:02.147Z,32.50
2023-04-27T02:30:35.921Z,31.70
2023-04-27T02:33:09.106Z,32.50
2023-04-27T02:35:42.288Z,32.50
2023-04-27T02:38:15.596Z,32.30
2023-04-27T02:40:50.979Z,32.40
2023-04-27T02:43:24.514Z,32.30
2023-04-27T02:45:57.344Z,32.40
2023-04-27T02:48:30.469Z,32.60
2023-04-27T02:51:03.725Z,32.50
2023-04-27T02:53:36.613Z,31.70
2023-04-27T02:56:11.469Z,31.90
2023-04-27T02:58:44.804Z,32.60
2023-04-27T03:01:20.150Z,33.00
2023-04-27T03:03:54.022Z,33.10
2023-04-27T03:06:27.436Z,33.00
2023-04-27T03:09:00.609Z,33.30
2023-04-27T03:11:37.265Z,32.40
2023-04-27T03:14:10.985Z,32.90
2023-04-27T03:16:44.220Z,32.10
2023-04-27T03:19:19.389Z,32.80
2023-04-27T03:21:52.594Z,33.00
2023-04-27T03:24:27.001Z,33.60
2023-04-27T03:27:04.010Z,33.90
2023-04-27T03:29:36.914Z,33.30
2023-04-27T03:32:11.107Z,32.90
2023-04-27T03:34:44.084Z,32.50
2023-04-27T03:37:17.217Z,32.30
2023-04-27T03:39:50.610Z,33.30
2023-04-27T03:42:25.843Z,33.90
2023-04-27T03:44:59.127Z,33.50
2023-04-27T03:47:32.769Z,33.40
2023-04-27T03:50:06.545Z,33.10
2023-04-27T03:52:39.392Z,31.50
2023-04-27T03:55:12.700Z,31.00
2023-04-27T03:57:49.279Z,31.20
2023-04-27T04:00:23.176Z,30.10
2023-04-27T04:02:57.043Z,29.60
2023-04-27T04:05:31.716Z,29.50
2023-04-27T04:08:05.410Z,29.40
2023-04-27T04:10:39.677Z,28.80
2023-04-27T04:13:14.678Z,28.30
2023-04-27T04:15:47.607Z,28.80
2023-04-27T04:18:20.812Z,29.10
2023-04-27T04:20:54.379Z,29.30
2023-04-27T04:23:28.735Z,29.50
2023-04-27T04:26:03.271Z,29.00
2023-04-27T04:28:42.408Z,28.60
2023-04-27T04:31:18.348Z,28.60
2023-04-27T04:33:51.508Z,28.80
2023-04-27T04:36:25.354Z,28.20
2023-04-27T04:39:00.501Z,28.10
2023-04-27T04:41:34.038Z,27.90
2023-04-27T04:44:09.552Z,28.00
2023-04-27T04:46:42.872Z,27.80
2023-04-27T04:49:16.164Z,27.70
2023-04-27T04:51:49.642Z,27.30
2023-04-27T04:54:22.950Z,26.90
2023-04-27T04:56:56.555Z,26.60
2023-04-27T04:59:36.799Z,26.80
2023-04-27T05:02:10.405Z,27.00
2023-04-27T05:04:44.065Z,27.10
2023-04-27T05:07:20.889Z,27.20
2023-04-27T05:09:57.190Z,27.00
2023-04-27T05:12:30.606Z,27.10
2023-04-27T05:15:06.275Z,27.00
2023-04-27T05:17:39.672Z,26.60
2023-04-27T05:20:14.209Z,26.40
2023-04-27T05:22:47.712Z,26.50
2023-04-27T05:25:21.278Z,27.00
2023-04-27T05:27:54.097Z,27.20
2023-04-27T05:30:29.008Z,27.30
2023-04-27T05:33:03.360Z,27.60
2023-04-27T05:35:37.139Z,27.30
2023-04-27T05:38:10.445Z,27.20
2023-04-27T05:40:43.964Z,27.10
2023-04-27T05:43:17.076Z,27.10
2023-04-27T05:45:53.043Z,27.10
2023-04-27T05:48:25.931Z,27.00
2023-04-27T05:51:05.035Z,27.00
2023-04-27T05:53:38.131Z,27.10
2023-04-27T05:56:14.243Z,27.10
2023-04-27T05:58:47.830Z,27.30
2023-04-27T06:01:23.272Z,27.20
2023-04-27T06:03:56.645Z,27.30
2023-04-27T06:06:30.270Z,27.20
2023-04-27T06:09:03.898Z,27.20
2023-04-27T06:11:37.476Z,27.20
2023-04-27T06:14:11.132Z,27.00
2023-04-27T06:16:45.813Z,26.80
2023-04-27T06:19:18.931Z,26.60
2023-04-27T06:21:52.095Z,26.80
2023-04-27T06:24:26.128Z,27.10
2023-04-27T06:26:59.767Z,26.80
2023-04-27T06:29:33.401Z,26.70
2023-04-27T06:32:09.222Z,26.80
2023-04-27T06:34:42.757Z,26.80
2023-04-27T06:37:16.297Z,27.20
2023-04-27T06:39:50.033Z,27.40
2023-04-27T06:42:23.199Z,27.70
2023-04-27T06:45:00.362Z,27.70
2023-04-27T06:47:36.489Z,27.70
2023-04-27T06:50:10.110Z,27.90
2023-04-27T06:52:42.942Z,28.00
2023-04-27T06:55:16.458Z,27.70
2023-04-27T06:57:49.525Z,27.40
2023-04-27T07:00:23.180Z,27.40
2023-04-27T07:02:58.161Z,27.60
2023-04-27T07:05:31.491Z,27.60
2023-04-27T07:08:07.937Z,27.80
2023-04-27T07:10:42.411Z,28.00
2023-04-27T07:13:15.929Z,27.60
2023-04-27T07:15:49.657Z,27.70
2023-04-27T07:18:25.199Z,27.70
2023-04-27T07:20:59.483Z,27.80
2023-04-27T07:23:32.913Z,27.30
2023-04-27T07:26:07.941Z,27.20
2023-04-27T07:28:41.344Z,27.30
2023-04-27T07:31:15.592Z,27.20
2023-04-27T07:33:54.595Z,27.20
2023-04-27T07:36:28.703Z,27.30
2023-04-27T07:39:02.140Z,27.50
2023-04-27T07:41:37.267Z,27.60
2023-04-27T07:44:10.913Z,27.50
2023-04-27T07:46:44.752Z,27.30
2023-04-27T07:49:22.232Z,27.30
2023-04-27T07:51:55.866Z,27.40
2023-04-27T07:54:29.483Z,27.50
2023-04-27T07:57:03.666Z,27.80
2023-04-27T07:59:36.946Z,28.10
2023-04-27T08:02:18.334Z,28.00
2023-04-27T08:05:02.895Z,28.10
2023-04-27T08:07:41.207Z,28.30
2023-04-27T08:10:20.253Z,28.10
2023-04-27T08:12:53.501Z,28.10
2023-04-27T08:15:27.072Z,28.50
2023-04-27T08:18:00.642Z,28.80
2023-04-27T08:20:36.182Z,29.00
2023-04-27T08:23:09.708Z,29.00
2023-04-27T08:25:42.588Z,28.90
2023-04-27T08:28:15.387Z,28.70
2023-04-27T08:30:48.561Z,28.40
2023-04-27T08:33:22.418Z,28.50
2023-04-27T08:36:07.268Z,28.50
2023-04-27T08:38:41.025Z,29.00
2023-04-27T08:41:21.218Z,28.90
2023-04-27T08:43:57.347Z,28.70
2023-04-27T08:46:32.984Z,28.70
2023-04-27T08:49:06.359Z,28.50
2023-04-27T08:51:43.140Z,28.40
2023-04-27T08:54:16.438Z,28.40
2023-04-27T08:56:50.251Z,28.00
2023-04-27T08:59:23.653Z,27.70
2023-04-27T09:01:57.510Z,27.80
2023-04-27T09:04:42.208Z,27.80
2023-04-27T09:07:21.818Z,27.80
2023-04-27T09:09:54.745Z,27.50
2023-04-27T09:12:27.880Z,27.20
2023-04-27T09:15:06.758Z,27.10
2023-04-27T09:17:40.028Z,27.20
2023-04-27T09:20:14.551Z,27.30
2023-04-27T09:22:56.619Z,27.10
2023-04-27T09:25:30.804Z,26.80
2023-04-27T09:28:05.115Z,26.80
2023-04-27T09:30:38.186Z,26.80
2023-04-27T09:33:10.999Z,26.90
2023-04-27T09:35:49.422Z,26.80
2023-04-27T09:38:25.999Z,26.30
2023-04-27T09:40:59.960Z,26.00
2023-04-27T09:43:34.507Z,26.10
2023-04-27T09:46:09.268Z,26.00
2023-04-27T09:48:44.233Z,25.80
2023-04-27T09:51:19.882Z,25.80
2023-04-27T09:53:59.724Z,25.20
2023-04-27T09:56:43.972Z,25.10
2023-04-27T09:59:53.696Z,25.10
2023-04-27T10:02:33.131Z,25.10
2023-04-27T10:05:28.419Z,25.00
2023-04-27T10:08:02.024Z,24.90
2023-04-27T10:10:50.777Z,24.80
2023-04-27T10:13:28.177Z,24.70
2023-04-27T10:16:01.968Z,24.50
2023-04-27T10:18:35.444Z,24.60
2023-04-27T10:21:15.204Z,24.30
2023-04-27T10:23:52.682Z,24.20
2023-04-27T10:26:32.997Z,24.10
2023-04-27T10:29:12.127Z,24.10
2023-04-27T10:31:51.405Z,24.20
2023-04-27T10:34:25.102Z,24.30
2023-04-27T10:37:10.442Z,24.20
2023-04-27T10:39:49.152Z,24.10
2023-04-27T10:42:34.234Z,24.10
2023-04-27T10:45:07.804Z,24.10
2023-04-27T10:47:44.927Z,24.10
2023-04-27T10:50:20.080Z,23.90
2023-04-27T10:52:53.407Z,23.90
2023-04-27T10:55:30.013Z,23.90
2023-04-27T10:58:05.517Z,23.80
2023-04-27T11:00:39.762Z,23.80
2023-04-27T11:03:18.537Z,23.80
2023-04-27T11:05:53.985Z,23.70
2023-04-27T11:08:27.767Z,23.60
2023-04-27T11:11:01.798Z,23.60
2023-04-27T11:13:37.174Z,23.50
2023-04-27T11:16:10.333Z,23.40
2023-04-27T11:18:43.725Z,23.50
2023-04-27T11:21:18.871Z,23.60
2023-04-27T11:23:51.721Z,23.40
2023-04-27T11:26:27.665Z,23.20
2023-04-27T11:29:07.471Z,23.30
2023-04-27T11:31:53.227Z,23.30
2023-04-27T11:34:27.927Z,23.30
2023-04-27T11:39:43.106Z,23.10
2023-04-27T11:42:26.231Z,23.10
2023-04-27T11:45:03.033Z,23.10
2023-04-27T11:47:37.449Z,23.00
2023-04-27T11:50:11.976Z,23.00
2023-04-27T11:52:46.611Z,22.90
2023-04-27T11:55:20.142Z,23.00
2023-04-27T11:57:56.869Z,23.00
2023-04-27T12:00:32.681Z,23.10
2023-04-27T12:03:07.252Z,23.20
2023-04-27T12:05:51.119Z,23.10
2023-04-27T12:08:24.516Z,23.10
2023-04-27T12:10:59.371Z,23.10
2023-04-27T12:13:32.800Z,23.10
2023-04-27T12:16:09.151Z,23.00
2023-04-27T12:18:42.084Z,23.10
2023-04-27T12:21:15.776Z,23.10
2023-04-27T12:23:49.266Z,23.10
2023-04-27T12:26:22.536Z,23.10
2023-04-27T12:28:56.118Z,23.10
2023-04-27T12:31:32.543Z,23.30
2023-04-27T12:34:06.250Z,23.30
2023-04-27T12:36:39.626Z,23.20
2023-04-27T12:39:21.356Z,23.20
2023-04-27T12:41:54.704Z,23.20
2023-04-27T12:44:28.160Z,23.20
2023-04-27T12:47:02.815Z,23.20
2023-04-27T12:49:37.665Z,23.10
2023-04-27T12:52:11.462Z,22.90
2023-04-27T12:54:45.200Z,23.10
2023-04-27T12:57:18.914Z,23.30
2023-04-27T12:59:53.523Z,23.50
2023-04-27T13:02:30.587Z,23.40
2023-04-27T13:05:05.364Z,23.30
2023-04-27T13:07:42.587Z,23.40
2023-04-27T13:10:16.718Z,23.40
2023-04-27T13:12:50.543Z,23.40
2023-04-27T13:15:24.761Z,23.40
2023-04-27T13:18:03.143Z,23.40
2023-04-27T13:20:38.164Z,23.50
2023-04-27T13:23:16.138Z,23.40
2023-04-27T13:25:49.448Z,23.40
2023-04-27T13:28:29.799Z,23.30
2023-04-27T13:31:02.654Z,23.30
2023-04-27T13:33:43.970Z,23.20
2023-04-27T13:36:17.466Z,23.20
2023-04-27T13:38:51.695Z,23.20
2023-04-27T13:41:25.843Z,23.10
2023-04-27T13:44:00.173Z,23.10
2023-04-27T13:46:34.346Z,23.00
2023-04-27T13:49:10.063Z,23.00
2023-04-27T13:51:46.919Z,22.90
2023-04-27T13:54:19.875Z,23.00
2023-04-27T13:56:53.615Z,22.80
2023-04-27T13:59:27.199Z,22.70
2023-04-27T14:02:04.306Z,22.60
2023-04-27T14:04:39.573Z,22.60
2023-04-27T14:07:16.830Z,22.50
2023-04-27T14:09:50.068Z,22.40
2023-04-27T14:12:23.281Z,22.40
2023-04-27T14:14:57.908Z,22.40
2023-04-27T14:17:31.810Z,22.30
2023-04-27T14:20:10.263Z,22.20
2023-04-27T14:22:44.418Z,22.20
2023-04-27T14:25:17.682Z,22.20
2023-04-27T14:27:57.028Z,22.10
2023-04-27T14:30:31.871Z,22.10
2023-04-27T14:33:05.272Z,22.10
2023-04-27T14:35:41.057Z,22.00
2023-04-27T14:38:13.908Z,22.00
2023-04-27T14:40:47.302Z,22.00
2023-04-27T14:43:25.204Z,22.00
2023-04-27T14:46:19.144Z,21.90
2023-04-27T14:48:54.842Z,22.00
2023-04-27T14:51:32.523Z,22.10
2023-04-27T14:54:05.564Z,22.10
2023-04-27T14:56:38.616Z,22.20
2023-04-27T14:59:12.817Z,22.10
2023-04-27T15:01:46.187Z,22.10
2023-04-27T15:04:19.743Z,21.90
2023-04-27T15:06:57.048Z,22.00
2023-04-27T15:09:31.464Z,22.10
2023-04-27T15:12:05.128Z,22.20
2023-04-27T15:14:38.535Z,22.20
2023-04-27T15:17:12.389Z,22.10
2023-04-27T15:19:47.033Z,22.00
2023-04-27T15:22:24.635Z,22.00
2023-04-27T15:24:57.792Z,21.80
2023-04-27T15:27:30.964Z,21.70
2023-04-27T15:30:05.593Z,21.70
2023-04-27T15:32:38.433Z,21.70
2023-04-27T15:35:12.343Z,21.60
2023-04-27T15:37:47.798Z,21.60
2023-04-27T15:40:21.712Z,21.70
2023-04-27T15:42:55.443Z,21.80
2023-04-27T15:45:28.569Z,21.70
2023-04-27T15:48:01.857Z,21.80
2023-04-27T15:50:37.150Z,21.80
2023-04-27T15:53:12.455Z,21.80
2023-04-27T15:55:47.029Z,21.80
2023-04-27T15:58:20.935Z,21.80
2023-04-27T16:00:55.429Z,21.80
2023-04-27T16:03:28.973Z,21.90
2023-04-27T16:06:01.823Z,21.90
2023-04-27T16:08:37.763Z,21.90
2023-04-27T16:11:11.493Z,21.60
2023-04-27T16:13:45.072Z,21.60
2023-04-27T16:16:23.257Z,21.70
2023-04-27T16:18:56.936Z,21.70
2023-04-27T16:21:31.395Z,21.70
2023-04-27T16:24:06.862Z,21.60
2023-04-27T16:26:40.293Z,21.30
2023-04-27T16:29:14.844Z,21.20
2023-04-27T16:31:47.978Z,21.20
2023-04-27T16:34:21.086Z,21.20
2023-04-27T16:36:54.340Z,21.30
2023-04-27T16:39:29.782Z,21.30
2023-04-27T16:42:03.491Z,21.30
2023-04-27T16:44:36.757Z,21.30
2023-04-27T16:47:09.622Z,21.20
2023-04-27T16:49:42.436Z,21.20
2023-04-27T16:52:15.843Z,21.30
2023-04-27T16:54:50.916Z,21.40
2023-04-27T16:57:24.286Z,21.50
2023-04-27T16:59:58.160Z,21.60
2023-04-27T17:02:31.587Z,21.70
2023-04-27T17:05:05.405Z,21.70
2023-04-27T17:07:39.024Z,21.70
2023-04-27T17:10:14.625Z,21.80
2023-04-27T17:12:48.134Z,21.80
2023-04-27T17:15:22.151Z,21.90
2023-04-27T17:17:55.791Z,21.80
2023-04-27T17:20:29.391Z,21.90
2023-04-27T17:23:02.815Z,21.80
2023-04-27T17:25:38.279Z,21.80
2023-04-27T17:28:11.510Z,21.60
2023-04-27T17:30:44.864Z,21.60
2023-04-27T17:33:18.524Z,21.60
2023-04-27T17:35:51.399Z,21.60
2023-04-27T17:38:24.869Z,21.50
2023-04-27T17:41:00.342Z,21.40
2023-04-27T17:43:33.948Z,21.50
2023-04-27T17:46:12.179Z,21.50
2023-04-27T17:48:45.336Z,21.60
2023-04-27T17:51:18.916Z,21.60
2023-04-27T17:53:52.373Z,21.60
2023-04-27T17:56:27.017Z,21.60
2023-04-27T17:59:00.887Z,21.70
2023-04-27T18:01:34.931Z,21.60
2023-04-27T18:04:09.042Z,21.60
2023-04-27T18:06:42.562Z,21.60
2023-04-27T18:09:16.295Z,21.60
2023-04-27T18:11:51.238Z,21.60
2023-04-27T18:14:24.617Z,21.70
2023-04-27T18:16:57.846Z,21.70
2023-04-27T18:19:30.951Z,21.50
2023-04-27T18:22:04.114Z,21.60
2023-04-27T18:24:37.327Z,21.60
2023-04-27T18:27:12.639Z,21.60
2023-04-27T18:29:46.236Z,21.60
2023-04-27T18:32:19.549Z,21.60
2023-04-27T18:34:52.875Z,21.50
2023-04-27T18:37:26.688Z,21.30
2023-04-27T18:39:59.528Z,21.30
2023-04-27T18:42:34.127Z,21.30
2023-04-27T18:45:07.619Z,21.20
2023-04-27T18:47:41.197Z,21.20
2023-04-27T18:50:16.470Z,21.00
2023-04-27T18:52:50.168Z,20.90
2023-04-27T18:55:24.259Z,20.70
2023-04-27T18:57:59.760Z,20.60
2023-04-27T19:00:33.296Z,20.70
2023-04-27T19:03:06.659Z,20.80
2023-04-27T19:05:39.761Z,20.80
2023-04-27T19:08:12.728Z,20.80
2023-04-27T19:10:46.313Z,20.80
2023-04-27T19:13:21.468Z,20.70
2023-04-27T19:15:55.297Z,20.80
2023-04-27T19:18:28.858Z,20.80
2023-04-27T19:21:02.375Z,20.80
2023-04-27T19:23:36.047Z,20.80
2023-04-27T19:26:13.204Z,20.80
2023-04-27T19:28:49.705Z,20.80
2023-04-27T19:31:24.603Z,20.70
2023-04-27T19:34:04.063Z,20.70
2023-04-27T19:36:37.359Z,20.80
2023-04-27T19:39:10.437Z,20.80
2023-04-27T19:41:44.228Z,20.80
2023-04-27T19:44:19.854Z,20.70
2023-04-27T19:46:53.088Z,20.60
2023-04-27T19:49:26.331Z,20.70
2023-04-27T19:51:59.147Z,20.70
2023-04-27T19:54:32.656Z,20.70
2023-04-27T19:57:05.894Z,20.70
2023-04-27T19:59:41.329Z,20.70
2023-04-27T20:02:15.447Z,20.70
2023-04-27T20:04:48.990Z,20.50
2023-04-27T20:07:22.735Z,20.50
2023-04-27T20:09:55.982Z,20.50
2023-04-27T20:12:43.626Z,20.40
2023-04-27T20:15:23.129Z,20.50
2023-04-27T20:17:56.559Z,20.40
2023-04-27T20:20:30.309Z,20.60
2023-04-27T20:23:03.729Z,20.60
2023-04-27T20:25:37.775Z,20.60
2023-04-27T20:28:11.037Z,20.60
2023-04-27T20:30:46.155Z,20.60
2023-04-27T20:33:19.508Z,20.60
2023-04-27T20:35:58.666Z,20.60
2023-04-27T20:38:34.163Z,20.60
2023-04-27T20:41:07.277Z,20.70
2023-04-27T20:43:41.449Z,20.60
2023-04-27T20:46:17.961Z,20.60
2023-04-27T20:48:51.595Z,20.70
2023-04-27T20:51:25.559Z,20.70
2023-04-27T20:53:59.482Z,20.70
2023-04-27T20:56:34.800Z,20.50
2023-04-27T20:59:08.291Z,20.50
2023-04-27T21:01:43.195Z,20.60
2023-04-27T21:04:17.228Z,20.50
2023-04-27T21:06:51.272Z,20.50
2023-04-27T21:09:25.311Z,20.50
2023-04-27T21:11:58.648Z,20.40
2023-04-27T21:14:31.437Z,20.40
2023-04-27T21:17:06.340Z,20.20
2023-04-27T21:19:39.960Z,20.20
2023-04-27T21:22:13.789Z,20.30
2023-04-27T21:24:47.405Z,20.40
2023-04-27T21:27:20.936Z,20.50
2023-04-27T21:29:54.780Z,20.20
2023-04-27T21:32:30.392Z,20.30
2023-04-27T21:35:03.829Z,20.40
2023-04-27T21:37:37.160Z,20.40
2023-04-27T21:40:11.371Z,20.30
2023-04-27T21:42:44.206Z,20.40
2023-04-27T21:45:16.933Z,20.50
2023-04-27T21:47:52.132Z,20.50
2023-04-27T21:50:25.840Z,20.50
2023-04-27T21:52:59.426Z,20.40
2023-04-27T21:55:32.978Z,20.40
2023-04-27T21:58:06.112Z,20.40
2023-04-27T22:00:39.423Z,20.40
2023-04-27T22:03:14.590Z,20.40
2023-04-27T22:05:50.356Z,20.50
2023-04-27T22:08:23.652Z,20.50
2023-04-27T22:10:57.010Z,20.40
2023-04-27T22:13:30.832Z,20.50
2023-04-27T22:16:04.223Z,20.50
2023-04-27T22:18:39.732Z,20.40
2023-04-27T22:21:13.826Z,20.40
2023-04-27T22:23:47.319Z,20.50
2023-04-27T22:26:20.923Z,20.50
2023-04-27T22:28:54.475Z,20.60
2023-04-27T22:31:28.559Z,20.50
2023-04-27T22:34:04.109Z,20.30
2023-04-27T22:36:38.147Z,20.20
2023-04-27T22:39:11.583Z,20.30
2023-04-27T22:41:45.047Z,20.40
2023-04-27T22:44:18.581Z,20.40
2023-04-27T22:46:51.532Z,20.50
2023-04-27T22:49:27.124Z,20.50
2023-04-27T22:52:00.894Z,20.60
2023-04-27T22:54:34.636Z,20.40
2023-04-27T22:57:07.943Z,20.40
2023-04-27T22:59:40.817Z,20.50
2023-04-27T23:02:13.634Z,20.50
2023-04-27T23:04:48.828Z,20.40
2023-04-27T23:07:22.291Z,20.40
2023-04-27T23:09:56.577Z,20.40
2023-04-27T23:12:30.193Z,20.30
2023-04-27T23:15:04.152Z,20.50
2023-04-27T23:17:38.133Z,20.60
2023-04-27T23:20:27.454Z,20.70
2023-04-27T23:23:02.046Z,20.70
2023-04-27T23:25:36.798Z,20.60
2023-04-27T23:28:10.260Z,20.80
2023-04-27T23:30:43.455Z,20.80
2023-04-27T23:33:16.924Z,20.90
2023-04-27T23:35:52.193Z,20.90
2023-04-27T23:38:25.345Z,21.00
2023-04-27T23:40:58.076Z,21.00
2023-04-27T23:43:31.559Z,21.00
2023-04-27T23:46:05.540Z,21.10
2023-04-27T23:48:39.317Z,21.10
2023-04-27T23:51:14.599Z,21.20
2023-04-27T23:53:47.909Z,21.10
2023-04-27T23:56:22.216Z,21.20
2023-04-27T23:58:55.463Z,20.80
